createdAt,value
2023-03-15T00:01:37.505Z,92697.50
2023-03-15T00:06:41.323Z,92692.81
2023-03-15T00:11:45.011Z,92688.22
2023-03-15T00:16:49.084Z,92678.00
2023-03-15T00:21:52.738Z,92679.16
2023-03-15T00:26:55.831Z,92668.88
2023-03-15T00:31:59.798Z,92666.63
2023-03-15T00:37:02.867Z,92637.16
2023-03-15T00:42:05.972Z,92636.22
2023-03-15T00:47:10.670Z,92629.25
2023-03-15T00:52:14.135Z,92608.22
2023-03-15T00:57:18.235Z,92593.81
2023-03-15T01:02:22.674Z,92594.97
2023-03-15T01:07:25.839Z,92575.88
2023-03-15T01:12:29.932Z,92570.00
2023-03-15T01:17:33.552Z,92570.44
2023-03-15T01:22:38.223Z,92550.47
2023-03-15T01:27:41.257Z,92535.94
2023-03-15T01:32:44.954Z,92546.66
2023-03-15T01:37:53.308Z,92539.00
2023-03-15T01:43:05.674Z,92564.72
2023-03-15T01:48:08.890Z,92561.53
2023-03-15T01:53:13.412Z,92543.34
2023-03-15T01:58:17.196Z,92548.06
2023-03-15T02:03:34.610Z,92537.59
2023-03-15T02:08:44.091Z,92558.56
2023-03-15T02:13:49.978Z,92537.22
2023-03-15T02:18:53.832Z,92564.81
2023-03-15T02:24:18.516Z,92561.34
2023-03-15T02:29:24.384Z,92575.63
2023-03-15T02:34:27.430Z,92559.63
2023-03-15T02:39:30.706Z,92545.50
2023-03-15T02:44:36.915Z,92537.63
2023-03-15T02:49:42.841Z,92538.09
2023-03-15T02:54:46.867Z,92527.59
2023-03-15T02:59:55.236Z,92530.91
2023-03-15T03:04:58.329Z,92520.25
2023-03-15T03:10:01.572Z,92542.84
2023-03-15T03:15:12.463Z,92549.84
2023-03-15T03:20:17.099Z,92563.41
2023-03-15T03:25:27.561Z,92558.34
2023-03-15T03:30:31.508Z,92529.84
2023-03-15T03:35:34.752Z,92499.78
2023-03-15T03:40:41.580Z,92510.84
2023-03-15T03:45:44.737Z,92534.22
2023-03-15T03:50:48.089Z,92533.28
2023-03-15T03:55:51.528Z,92555.44
2023-03-15T04:00:58.111Z,92561.28
2023-03-15T04:06:05.887Z,92570.66
2023-03-15T04:11:17.778Z,92542.09
2023-03-15T04:16:27.018Z,92578.69
2023-03-15T04:21:37.415Z,92599.03
2023-03-15T04:27:03.114Z,92588.13
2023-03-15T04:32:18.373Z,92604.44
2023-03-15T04:37:38.661Z,92601.34
2023-03-15T04:43:06.184Z,92593.56
2023-03-15T04:48:25.381Z,92569.44
2023-03-15T04:53:43.460Z,92565.16
2023-03-15T04:58:46.603Z,92558.97
2023-03-15T05:04:19.014Z,92539.09
2023-03-15T05:09:42.460Z,92527.41
2023-03-15T05:14:54.509Z,92532.47
2023-03-15T05:20:29.837Z,92526.66
2023-03-15T05:25:56.920Z,92524.69
2023-03-15T05:31:05.848Z,92535.59
2023-03-15T05:36:27.922Z,92527.41
2023-03-15T05:41:52.028Z,92521.53
2023-03-15T05:47:16.196Z,92535.13
2023-03-15T05:52:45.096Z,92536.59
2023-03-15T05:57:56.871Z,92551.34
2023-03-15T06:03:20.125Z,92549.75
2023-03-15T06:08:40.004Z,92541.53
2023-03-15T06:13:43.918Z,92534.72
2023-03-15T06:18:54.753Z,92525.53
2023-03-15T06:23:58.793Z,92517.34
2023-03-15T06:29:02.511Z,92505.38
2023-03-15T06:34:06.483Z,92525.47
2023-03-15T06:39:12.386Z,92511.84
2023-03-15T06:44:15.677Z,92519.69
2023-03-15T06:49:19.258Z,92486.09
2023-03-15T06:54:22.426Z,92479.53
2023-03-15T06:59:26.081Z,92453.44
2023-03-15T07:04:29.778Z,92442.97
2023-03-15T07:09:32.942Z,92468.09
2023-03-15T07:14:36.726Z,92481.50
2023-03-15T07:19:50.123Z,92505.34
2023-03-15T07:24:54.676Z,92505.81
2023-03-15T07:29:57.844Z,92504.69
2023-03-15T07:35:01.418Z,92551.09
2023-03-15T07:40:07.200Z,92548.63
2023-03-15T07:45:11.224Z,92531.59
2023-03-15T07:50:17.263Z,92517.03
2023-03-15T07:55:20.524Z,92515.22
2023-03-15T08:00:24.903Z,92513.81
2023-03-15T08:05:29.190Z,92534.22
2023-03-15T08:10:33.233Z,92523.88
2023-03-15T08:15:36.491Z,92545.16
2023-03-15T08:20:39.532Z,92540.31
2023-03-15T08:25:46.176Z,92547.47
2023-03-15T08:30:49.403Z,92534.50
2023-03-15T08:35:54.808Z,92518.84
2023-03-15T08:40:58.900Z,92528.97
2023-03-15T08:46:02.319Z,92519.22
2023-03-15T08:51:06.886Z,92485.69
2023-03-15T08:56:10.163Z,92494.16
2023-03-15T09:01:14.086Z,92491.91
2023-03-15T09:06:19.237Z,92523.44
2023-03-15T09:11:23.371Z,92537.81
2023-03-15T09:16:26.994Z,92512.72
2023-03-15T09:21:32.036Z,92538.00
2023-03-15T09:26:35.168Z,92519.31
2023-03-15T09:31:38.310Z,92537.91
2023-03-15T09:36:41.580Z,92543.13
2023-03-15T09:41:47.911Z,92552.38
2023-03-15T09:47:02.065Z,92547.31
2023-03-15T09:52:33.770Z,92549.50
2023-03-15T09:57:59.825Z,92546.38
2023-03-15T10:03:10.106Z,92552.72
2023-03-15T10:08:17.689Z,92548.06
2023-03-15T10:13:48.234Z,92552.22
2023-03-15T10:19:07.277Z,92546.34
2023-03-15T10:24:37.965Z,92557.16
2023-03-15T10:29:41.240Z,92546.78
2023-03-15T10:34:56.025Z,92525.59
2023-03-15T10:39:59.958Z,92546.69
2023-03-15T10:45:24.406Z,92556.75
2023-03-15T10:50:29.375Z,92554.50
2023-03-15T10:55:45.296Z,92553.13
2023-03-15T11:00:51.698Z,92554.00
2023-03-15T11:05:57.734Z,92563.53
2023-03-15T11:11:01.209Z,92543.09
2023-03-15T11:16:21.053Z,92539.84
2023-03-15T11:21:43.166Z,92541.03
2023-03-15T11:26:52.039Z,92540.72
2023-03-15T11:31:57.454Z,92557.47
2023-03-15T11:37:08.928Z,92547.84
2023-03-15T11:42:23.553Z,92540.59
2023-03-15T11:47:59.338Z,92562.59
2023-03-15T11:53:07.148Z,92553.06
2023-03-15T11:58:35.890Z,92541.69
2023-03-15T12:03:45.625Z,92550.69
2023-03-15T12:08:52.014Z,92531.16
2023-03-15T12:13:57.867Z,92521.94
2023-03-15T12:19:15.022Z,92523.97
2023-03-15T12:24:29.218Z,92530.06
2023-03-15T12:29:35.112Z,92520.66
2023-03-15T12:34:44.250Z,92500.38
2023-03-15T12:40:19.267Z,92513.84
2023-03-15T12:45:28.340Z,92521.28
2023-03-15T12:50:46.364Z,92517.66
2023-03-15T12:55:54.081Z,92536.38
2023-03-15T13:01:03.748Z,92534.09
2023-03-15T13:06:28.095Z,92533.09
2023-03-15T13:11:39.613Z,92522.97
2023-03-15T13:16:54.900Z,92495.31
2023-03-15T13:22:18.324Z,92502.56
2023-03-15T13:27:36.900Z,92490.69
2023-03-15T13:32:40.236Z,92420.00
2023-03-15T13:37:45.399Z,92460.28
2023-03-15T13:42:48.584Z,92517.44
2023-03-15T13:47:51.644Z,92520.19
2023-03-15T13:52:56.791Z,92485.31
2023-03-15T13:58:05.291Z,92489.50
2023-03-15T14:03:17.727Z,92480.50
2023-03-15T14:08:27.793Z,92508.38
2023-03-15T14:13:34.500Z,92520.78
2023-03-15T14:18:41.877Z,92515.00
2023-03-15T14:23:48.712Z,92521.84
2023-03-15T14:29:02.346Z,92486.94
2023-03-15T14:34:10.474Z,92518.22
2023-03-15T14:39:43.149Z,92516.69
2023-03-15T14:44:46.702Z,92513.06
2023-03-15T14:49:50.188Z,92534.78
2023-03-15T14:54:53.924Z,92532.75
2023-03-15T14:59:57.008Z,92557.28
2023-03-15T15:05:04.372Z,92578.03
2023-03-15T15:10:07.781Z,92587.34
2023-03-15T15:15:22.434Z,92562.06
2023-03-15T15:20:25.848Z,92562.09
2023-03-15T15:25:31.039Z,92551.03
2023-03-15T15:30:34.822Z,92516.56
2023-03-15T15:35:38.790Z,92531.47
2023-03-15T15:40:42.876Z,92562.94
2023-03-15T15:46:12.731Z,92553.63
2023-03-15T15:51:22.075Z,92561.72
2023-03-15T15:56:32.277Z,92537.41
2023-03-15T16:01:36.542Z,92554.19
2023-03-15T16:06:42.876Z,92581.28
2023-03-15T16:11:46.261Z,92577.09
2023-03-15T16:16:50.429Z,92556.16
2023-03-15T16:21:54.780Z,92583.75
2023-03-15T16:27:08.929Z,92514.69
2023-03-15T16:32:32.851Z,92585.38
2023-03-15T16:37:40.577Z,92584.22
2023-03-15T16:42:44.654Z,92581.03
2023-03-15T16:47:48.862Z,92593.31
2023-03-15T16:52:56.779Z,92592.59
2023-03-15T16:58:17.960Z,92582.00
2023-03-15T17:03:21.828Z,92587.59
2023-03-15T17:08:25.650Z,92608.94
2023-03-15T17:13:30.546Z,92608.72
2023-03-15T17:18:35.055Z,92611.56
2023-03-15T17:23:38.104Z,92629.69
2023-03-15T17:28:43.692Z,92607.13
2023-03-15T17:33:47.220Z,92635.81
2023-03-15T17:38:50.686Z,92619.09
2023-03-15T17:43:54.579Z,92627.41
2023-03-15T17:48:58.609Z,92597.91
2023-03-15T17:54:02.749Z,92646.38
2023-03-15T17:59:06.167Z,92635.16
2023-03-15T18:04:13.298Z,92663.81
2023-03-15T18:09:16.448Z,92718.50
2023-03-15T18:14:19.569Z,92711.88
2023-03-15T18:19:23.818Z,92717.97
2023-03-15T18:24:28.036Z,92705.22
2023-03-15T18:29:32.082Z,92729.00
2023-03-15T18:34:42.737Z,92711.88
2023-03-15T18:39:51.400Z,92696.25
2023-03-15T18:44:55.317Z,92679.03
2023-03-15T18:50:09.821Z,92659.44
2023-03-15T18:55:15.481Z,92666.41
2023-03-15T19:00:27.172Z,92664.00
2023-03-15T19:05:32.554Z,92657.84
2023-03-15T19:10:36.170Z,92668.81
2023-03-15T19:15:40.216Z,92645.47
2023-03-15T19:20:43.444Z,92716.13
2023-03-15T19:25:48.097Z,92687.63
2023-03-15T19:30:51.531Z,92696.94
2023-03-15T19:35:55.295Z,92685.06
2023-03-15T19:41:03.885Z,92728.84
2023-03-15T19:46:08.414Z,92700.44
2023-03-15T19:51:11.618Z,92756.91
2023-03-15T19:56:15.450Z,92680.38
2023-03-15T20:01:18.810Z,92771.84
2023-03-15T20:06:22.421Z,92729.69
2023-03-15T20:11:26.485Z,92747.28
2023-03-15T20:16:29.778Z,92725.44
2023-03-15T20:21:34.012Z,92756.25
2023-03-15T20:26:37.323Z,92811.31
2023-03-15T20:31:41.477Z,92750.91
2023-03-15T20:36:45.930Z,92797.38
2023-03-15T20:41:50.578Z,92802.84
2023-03-15T20:46:57.106Z,92827.72
2023-03-15T20:52:01.813Z,92791.94
2023-03-15T20:57:07.214Z,92807.47
2023-03-15T21:02:15.148Z,92803.22
2023-03-15T21:07:18.745Z,92842.38
2023-03-15T21:12:23.231Z,92839.41
2023-03-15T21:17:27.394Z,92828.66
2023-03-15T21:22:31.335Z,92821.19
2023-03-15T21:27:34.740Z,92815.72
2023-03-15T21:32:38.790Z,92842.78
2023-03-15T21:37:42.618Z,92793.75
2023-03-15T21:42:47.997Z,92842.59
2023-03-15T21:47:52.944Z,92832.91
2023-03-15T21:52:56.050Z,92811.81
2023-03-15T21:58:02.182Z,92842.59
2023-03-15T22:03:05.985Z,92816.56
2023-03-15T22:08:09.550Z,92829.09
2023-03-15T22:13:13.058Z,92824.88
2023-03-15T22:18:16.923Z,92846.84
2023-03-15T22:23:20.229Z,92865.19
2023-03-15T22:28:25.462Z,92848.50
2023-03-15T22:33:28.534Z,92834.91
2023-03-15T22:38:37.962Z,92841.31
2023-03-15T22:43:41.623Z,92836.28
2023-03-15T22:48:44.972Z,92849.28
2023-03-15T22:53:49.058Z,92862.75
2023-03-15T22:58:55.720Z,92837.91
2023-03-15T23:03:59.277Z,92832.19
2023-03-15T23:09:05.490Z,92841.47
2023-03-15T23:14:09.868Z,92827.28
2023-03-15T23:19:13.732Z,92863.56
2023-03-15T23:24:19.224Z,92843.75
2023-03-15T23:29:24.018Z,92852.28
2023-03-15T23:34:28.519Z,92856.38
2023-03-15T23:39:32.211Z,92870.25
2023-03-15T23:44:35.575Z,92885.91
2023-03-15T23:49:38.799Z,92853.56
2023-03-15T23:54:42.831Z,92881.78
2023-03-15T23:59:46.416Z,92881.94
